sensor_id;sensor_type;location;lat;lon;timestamp;temperature;humidity
28767;DHT22;15921;52.034;20.650;2023-05-10T00:00:32;7.60;73.00
28767;DHT22;15921;52.034;20.650;2023-05-10T00:02:58;7.60;73.40
28767;DHT22;15921;52.034;20.650;2023-05-10T00:05:24;7.50;73.30
28767;DHT22;15921;52.034;20.650;2023-05-10T00:07:49;7.50;73.60
28767;DHT22;15921;52.034;20.650;2023-05-10T00:10:15;7.50;73.70
28767;DHT22;15921;52.034;20.650;2023-05-10T00:12:41;7.40;73.90
28767;DHT22;15921;52.034;20.650;2023-05-10T00:15:07;7.40;74.30
28767;DHT22;15921;52.034;20.650;2023-05-10T00:17:33;7.40;74.30
28767;DHT22;15921;52.034;20.650;2023-05-10T00:19:59;7.30;74.30
28767;DHT22;15921;52.034;20.650;2023-05-10T00:22:25;7.30;74.50
28767;DHT22;15921;52.034;20.650;2023-05-10T00:24:51;7.20;74.80
28767;DHT22;15921;52.034;20.650;2023-05-10T00:27:17;7.10;75.10
28767;DHT22;15921;52.034;20.650;2023-05-10T00:29:42;7.10;75.50
28767;DHT22;15921;52.034;20.650;2023-05-10T00:32:08;7.00;75.80
28767;DHT22;15921;52.034;20.650;2023-05-10T00:34:34;7.00;76.00
28767;DHT22;15921;52.034;20.650;2023-05-10T00:36:59;6.90;76.40
28767;DHT22;15921;52.034;20.650;2023-05-10T00:39:25;6.80;76.60
28767;DHT22;15921;52.034;20.650;2023-05-10T00:41:52;6.80;76.70
28767;DHT22;15921;52.034;20.650;2023-05-10T00:44:17;6.80;76.80
28767;DHT22;15921;52.034;20.650;2023-05-10T00:46:44;6.70;77.40
28767;DHT22;15921;52.034;20.650;2023-05-10T00:49:10;6.60;77.20
28767;DHT22;15921;52.034;20.650;2023-05-10T00:51:36;6.60;77.80
28767;DHT22;15921;52.034;20.650;2023-05-10T00:54:03;6.50;78.00
28767;DHT22;15921;52.034;20.650;2023-05-10T00:56:28;6.50;78.30
28767;DHT22;15921;52.034;20.650;2023-05-10T00:58:55;6.40;78.40
28767;DHT22;15921;52.034;20.650;2023-05-10T01:01:21;6.40;78.70
28767;DHT22;15921;52.034;20.650;2023-05-10T01:03:47;6.40;79.10
28767;DHT22;15921;52.034;20.650;2023-05-10T01:06:13;6.30;79.40
28767;DHT22;15921;52.034;20.650;2023-05-10T01:08:39;6.30;79.70
28767;DHT22;15921;52.034;20.650;2023-05-10T01:11:05;6.30;79.90
28767;DHT22;15921;52.034;20.650;2023-05-10T01:13:36;6.20;80.20
28767;DHT22;15921;52.034;20.650;2023-05-10T01:16:03;6.20;80.50
28767;DHT22;15921;52.034;20.650;2023-05-10T01:18:33;6.10;80.90
28767;DHT22;15921;52.034;20.650;2023-05-10T01:21:29;6.00;81.40
28767;DHT22;15921;52.034;20.650;2023-05-10T01:24:24;6.00;82.00
28767;DHT22;15921;52.034;20.650;2023-05-10T01:30:15;5.90;83.00
28767;DHT22;15921;52.034;20.650;2023-05-10T01:33:01;5.80;83.60
28767;DHT22;15921;52.034;20.650;2023-05-10T01:35:58;5.80;84.30
28767;DHT22;15921;52.034;20.650;2023-05-10T01:38:43;5.70;84.70
28767;DHT22;15921;52.034;20.650;2023-05-10T01:41:25;5.70;85.20
28767;DHT22;15921;52.034;20.650;2023-05-10T01:44:26;5.70;85.60
28767;DHT22;15921;52.034;20.650;2023-05-10T01:47:14;5.60;86.40
28767;DHT22;15921;52.034;20.650;2023-05-10T01:49:50;5.60;87.20
28767;DHT22;15921;52.034;20.650;2023-05-10T01:52:20;5.50;87.90
28767;DHT22;15921;52.034;20.650;2023-05-10T01:54:55;5.50;88.40
28767;DHT22;15921;52.034;20.650;2023-05-10T01:57:27;5.40;89.60
28767;DHT22;15921;52.034;20.650;2023-05-10T01:59:56;5.40;90.10
28767;DHT22;15921;52.034;20.650;2023-05-10T02:02:23;5.40;90.70
28767;DHT22;15921;52.034;20.650;2023-05-10T02:04:50;5.30;91.20
28767;DHT22;15921;52.034;20.650;2023-05-10T02:07:16;5.30;91.60
28767;DHT22;15921;52.034;20.650;2023-05-10T02:09:44;5.20;92.00
28767;DHT22;15921;52.034;20.650;2023-05-10T02:12:14;5.20;92.40
28767;DHT22;15921;52.034;20.650;2023-05-10T02:14:41;5.20;92.90
28767;DHT22;15921;52.034;20.650;2023-05-10T02:17:08;5.10;93.30
28767;DHT22;15921;52.034;20.650;2023-05-10T02:19:36;5.10;93.80
28767;DHT22;15921;52.034;20.650;2023-05-10T02:22:03;5.00;94.40
28767;DHT22;15921;52.034;20.650;2023-05-10T02:24:29;5.00;95.20
28767;DHT22;15921;52.034;20.650;2023-05-10T02:26:56;5.00;96.30
28767;DHT22;15921;52.034;20.650;2023-05-10T02:29:25;4.90;96.80
28767;DHT22;15921;52.034;20.650;2023-05-10T02:31:53;4.90;97.50
28767;DHT22;15921;52.034;20.650;2023-05-10T02:34:21;4.90;98.10
28767;DHT22;15921;52.034;20.650;2023-05-10T02:36:47;4.80;98.60
28767;DHT22;15921;52.034;20.650;2023-05-10T02:39:14;4.80;99.20
28767;DHT22;15921;52.034;20.650;2023-05-10T02:41:42;4.70;99.90
28767;DHT22;15921;52.034;20.650;2023-05-10T02:44:09;4.70;99.90
28767;DHT22;15921;52.034;20.650;2023-05-10T02:46:36;4.70;99.90
28767;DHT22;15921;52.034;20.650;2023-05-10T02:49:03;4.70;99.90
28767;DHT22;15921;52.034;20.650;2023-05-10T02:51:31;4.70;99.90
28767;DHT22;15921;52.034;20.650;2023-05-10T02:53:58;4.70;99.90
28767;DHT22;15921;52.034;20.650;2023-05-10T02:56:33;4.70;99.90
28767;DHT22;15921;52.034;20.650;2023-05-10T02:58:59;4.70;99.90
28767;DHT22;15921;52.034;20.650;2023-05-10T03:01:25;4.70;99.90
28767;DHT22;15921;52.034;20.650;2023-05-10T03:03:51;4.60;99.90
28767;DHT22;15921;52.034;20.650;2023-05-10T03:06:16;4.60;99.90
28767;DHT22;15921;52.034;20.650;2023-05-10T03:08:43;4.60;99.90
28767;DHT22;15921;52.034;20.650;2023-05-10T03:11:17;4.70;99.90
28767;DHT22;15921;52.034;20.650;2023-05-10T03:14:10;4.70;99.90
28767;DHT22;15921;52.034;20.650;2023-05-10T03:17:10;4.70;99.90
28767;DHT22;15921;52.034;20.650;2023-05-10T03:19:44;4.70;99.90
28767;DHT22;15921;52.034;20.650;2023-05-10T03:22:16;4.80;99.90
28767;DHT22;15921;52.034;20.650;2023-05-10T03:24:45;4.80;99.90
28767;DHT22;15921;52.034;20.650;2023-05-10T03:27:14;4.80;99.90
28767;DHT22;15921;52.034;20.650;2023-05-10T03:29:40;4.90;99.90
28767;DHT22;15921;52.034;20.650;2023-05-10T03:32:07;4.90;99.90
28767;DHT22;15921;52.034;20.650;2023-05-10T03:34:33;5.00;99.90
28767;DHT22;15921;52.034;20.650;2023-05-10T03:36:59;5.00;99.90
28767;DHT22;15921;52.034;20.650;2023-05-10T03:39:24;5.00;99.90
28767;DHT22;15921;52.034;20.650;2023-05-10T03:41:50;5.10;99.90
28767;DHT22;15921;52.034;20.650;2023-05-10T03:44:16;5.20;99.90
28767;DHT22;15921;52.034;20.650;2023-05-10T03:46:42;5.20;99.90
28767;DHT22;15921;52.034;20.650;2023-05-10T03:49:07;5.30;99.90
28767;DHT22;15921;52.034;20.650;2023-05-10T03:51:33;5.40;99.90
28767;DHT22;15921;52.034;20.650;2023-05-10T03:53:59;5.40;99.90
28767;DHT22;15921;52.034;20.650;2023-05-10T03:56:24;5.50;99.90
28767;DHT22;15921;52.034;20.650;2023-05-10T03:58:50;5.60;99.90
28767;DHT22;15921;52.034;20.650;2023-05-10T04:01:16;5.60;99.90
28767;DHT22;15921;52.034;20.650;2023-05-10T04:03:41;5.80;99.90
28767;DHT22;15921;52.034;20.650;2023-05-10T04:06:07;5.80;99.90
28767;DHT22;15921;52.034;20.650;2023-05-10T04:08:34;5.90;99.90
28767;DHT22;15921;52.034;20.650;2023-05-10T04:11:10;6.00;99.90
28767;DHT22;15921;52.034;20.650;2023-05-10T04:13:36;6.10;99.90
28767;DHT22;15921;52.034;20.650;2023-05-10T04:16:02;6.20;99.30
28767;DHT22;15921;52.034;20.650;2023-05-10T04:18:28;6.30;99.00
28767;DHT22;15921;52.034;20.650;2023-05-10T04:20:53;6.40;98.40
28767;DHT22;15921;52.034;20.650;2023-05-10T04:23:19;6.50;98.00
28767;DHT22;15921;52.034;20.650;2023-05-10T04:25:45;6.60;97.30
28767;DHT22;15921;52.034;20.650;2023-05-10T04:28:10;6.80;96.70
28767;DHT22;15921;52.034;20.650;2023-05-10T04:30:36;6.90;96.40
28767;DHT22;15921;52.034;20.650;2023-05-10T04:33:02;7.00;96.00
28767;DHT22;15921;52.034;20.650;2023-05-10T04:35:28;7.00;95.50
28767;DHT22;15921;52.034;20.650;2023-05-10T04:37:54;7.20;95.00
28767;DHT22;15921;52.034;20.650;2023-05-10T04:40:20;7.30;94.70
28767;DHT22;15921;52.034;20.650;2023-05-10T04:42:46;7.40;94.30
28767;DHT22;15921;52.034;20.650;2023-05-10T04:45:12;7.50;93.80
28767;DHT22;15921;52.034;20.650;2023-05-10T04:47:37;7.60;93.30
28767;DHT22;15921;52.034;20.650;2023-05-10T04:50:04;7.70;93.10
28767;DHT22;15921;52.034;20.650;2023-05-10T04:52:30;7.90;92.60
28767;DHT22;15921;52.034;20.650;2023-05-10T04:54:55;8.00;92.20
28767;DHT22;15921;52.034;20.650;2023-05-10T04:57:21;8.10;92.00
28767;DHT22;15921;52.034;20.650;2023-05-10T04:59:47;8.30;91.80
28767;DHT22;15921;52.034;20.650;2023-05-10T05:02:13;8.40;91.30
28767;DHT22;15921;52.034;20.650;2023-05-10T05:04:38;8.50;91.00
28767;DHT22;15921;52.034;20.650;2023-05-10T05:07:04;8.60;90.80
28767;DHT22;15921;52.034;20.650;2023-05-10T05:09:30;8.70;90.40
28767;DHT22;15921;52.034;20.650;2023-05-10T05:11:57;8.90;90.00
28767;DHT22;15921;52.034;20.650;2023-05-10T05:14:23;9.00;89.80
28767;DHT22;15921;52.034;20.650;2023-05-10T05:16:51;9.10;90.10
28767;DHT22;15921;52.034;20.650;2023-05-10T05:19:17;9.20;89.10
28767;DHT22;15921;52.034;20.650;2023-05-10T05:21:43;9.40;87.90
28767;DHT22;15921;52.034;20.650;2023-05-10T05:24:08;9.50;87.00
28767;DHT22;15921;52.034;20.650;2023-05-10T05:26:35;9.60;86.60
28767;DHT22;15921;52.034;20.650;2023-05-10T05:29:02;9.70;85.90
28767;DHT22;15921;52.034;20.650;2023-05-10T05:31:28;9.80;85.50
28767;DHT22;15921;52.034;20.650;2023-05-10T05:33:54;9.90;85.00
28767;DHT22;15921;52.034;20.650;2023-05-10T05:36:19;10.00;84.40
28767;DHT22;15921;52.034;20.650;2023-05-10T05:38:45;10.20;84.00
28767;DHT22;15921;52.034;20.650;2023-05-10T05:41:11;10.30;83.50
28767;DHT22;15921;52.034;20.650;2023-05-10T05:43:36;10.40;82.30
28767;DHT22;15921;52.034;20.650;2023-05-10T05:46:02;10.50;82.10
28767;DHT22;15921;52.034;20.650;2023-05-10T05:48:29;10.60;81.60
28767;DHT22;15921;52.034;20.650;2023-05-10T05:50:55;10.80;81.20
28767;DHT22;15921;52.034;20.650;2023-05-10T05:53:22;10.80;80.80
28767;DHT22;15921;52.034;20.650;2023-05-10T05:55:52;11.00;80.60
28767;DHT22;15921;52.034;20.650;2023-05-10T05:58:18;11.10;79.80
28767;DHT22;15921;52.034;20.650;2023-05-10T06:00:44;11.20;79.70
28767;DHT22;15921;52.034;20.650;2023-05-10T06:03:10;11.40;79.20
28767;DHT22;15921;52.034;20.650;2023-05-10T06:05:36;11.50;77.90
28767;DHT22;15921;52.034;20.650;2023-05-10T06:08:01;11.60;77.90
28767;DHT22;15921;52.034;20.650;2023-05-10T06:10:27;11.70;77.00
28767;DHT22;15921;52.034;20.650;2023-05-10T06:12:53;11.80;76.20
28767;DHT22;15921;52.034;20.650;2023-05-10T06:15:18;11.90;75.70
28767;DHT22;15921;52.034;20.650;2023-05-10T06:17:44;12.00;75.00
28767;DHT22;15921;52.034;20.650;2023-05-10T06:20:10;12.10;74.10
28767;DHT22;15921;52.034;20.650;2023-05-10T06:22:36;12.20;74.00
28767;DHT22;15921;52.034;20.650;2023-05-10T06:25:01;12.40;73.90
28767;DHT22;15921;52.034;20.650;2023-05-10T06:27:27;12.50;72.80
28767;DHT22;15921;52.034;20.650;2023-05-10T06:29:53;12.60;72.10
28767;DHT22;15921;52.034;20.650;2023-05-10T06:32:19;12.70;71.40
28767;DHT22;15921;52.034;20.650;2023-05-10T06:34:44;12.80;70.30
28767;DHT22;15921;52.034;20.650;2023-05-10T06:37:11;13.00;70.00
28767;DHT22;15921;52.034;20.650;2023-05-10T06:39:37;13.00;70.20
28767;DHT22;15921;52.034;20.650;2023-05-10T06:42:03;13.20;70.00
28767;DHT22;15921;52.034;20.650;2023-05-10T06:44:30;13.30;69.10
28767;DHT22;15921;52.034;20.650;2023-05-10T06:46:55;13.40;68.30
28767;DHT22;15921;52.034;20.650;2023-05-10T06:49:21;13.50;67.40
28767;DHT22;15921;52.034;20.650;2023-05-10T06:51:47;13.60;66.70
28767;DHT22;15921;52.034;20.650;2023-05-10T06:54:13;13.70;66.60
28767;DHT22;15921;52.034;20.650;2023-05-10T06:56:39;13.80;66.50
28767;DHT22;15921;52.034;20.650;2023-05-10T06:59:05;13.80;65.20
28767;DHT22;15921;52.034;20.650;2023-05-10T07:01:31;13.90;64.40
28767;DHT22;15921;52.034;20.650;2023-05-10T07:03:56;14.00;64.30
28767;DHT22;15921;52.034;20.650;2023-05-10T07:06:22;14.10;64.60
28767;DHT22;15921;52.034;20.650;2023-05-10T07:08:47;14.10;63.50
28767;DHT22;15921;52.034;20.650;2023-05-10T07:11:13;14.10;62.50
28767;DHT22;15921;52.034;20.650;2023-05-10T07:13:39;14.20;62.40
28767;DHT22;15921;52.034;20.650;2023-05-10T07:16:07;14.30;62.10
28767;DHT22;15921;52.034;20.650;2023-05-10T07:18:33;14.40;61.70
28767;DHT22;15921;52.034;20.650;2023-05-10T07:20:59;14.50;61.80
28767;DHT22;15921;52.034;20.650;2023-05-10T07:23:25;14.60;61.00
28767;DHT22;15921;52.034;20.650;2023-05-10T07:25:51;14.70;59.20
28767;DHT22;15921;52.034;20.650;2023-05-10T07:28:18;14.70;58.70
28767;DHT22;15921;52.034;20.650;2023-05-10T07:30:44;14.70;57.60
28767;DHT22;15921;52.034;20.650;2023-05-10T07:33:12;14.70;56.80
28767;DHT22;15921;52.034;20.650;2023-05-10T07:35:38;14.70;56.90
28767;DHT22;15921;52.034;20.650;2023-05-10T07:38:03;14.80;56.00
28767;DHT22;15921;52.034;20.650;2023-05-10T07:40:30;14.90;55.30
28767;DHT22;15921;52.034;20.650;2023-05-10T07:42:55;14.90;55.00
28767;DHT22;15921;52.034;20.650;2023-05-10T07:45:22;15.00;54.60
28767;DHT22;15921;52.034;20.650;2023-05-10T07:47:47;15.10;54.20
28767;DHT22;15921;52.034;20.650;2023-05-10T07:50:13;15.10;53.70
28767;DHT22;15921;52.034;20.650;2023-05-10T07:52:39;15.20;53.00
28767;DHT22;15921;52.034;20.650;2023-05-10T07:55:05;15.20;53.00
28767;DHT22;15921;52.034;20.650;2023-05-10T07:57:33;15.30;53.10
28767;DHT22;15921;52.034;20.650;2023-05-10T07:59:59;15.40;53.10
28767;DHT22;15921;52.034;20.650;2023-05-10T08:02:25;15.50;52.40
28767;DHT22;15921;52.034;20.650;2023-05-10T08:04:50;15.50;51.80
28767;DHT22;15921;52.034;20.650;2023-05-10T08:07:17;15.50;51.20
28767;DHT22;15921;52.034;20.650;2023-05-10T08:09:43;15.40;51.60
28767;DHT22;15921;52.034;20.650;2023-05-10T08:12:08;15.50;51.50
28767;DHT22;15921;52.034;20.650;2023-05-10T08:14:34;15.60;51.30
28767;DHT22;15921;52.034;20.650;2023-05-10T08:17:02;15.70;50.80
28767;DHT22;15921;52.034;20.650;2023-05-10T08:19:28;15.80;51.20
28767;DHT22;15921;52.034;20.650;2023-05-10T08:21:54;15.90;51.80
28767;DHT22;15921;52.034;20.650;2023-05-10T08:24:21;16.00;51.30
28767;DHT22;15921;52.034;20.650;2023-05-10T08:26:47;16.10;51.30
28767;DHT22;15921;52.034;20.650;2023-05-10T08:29:13;16.20;50.80
28767;DHT22;15921;52.034;20.650;2023-05-10T08:31:39;16.20;50.40
28767;DHT22;15921;52.034;20.650;2023-05-10T08:34:05;16.20;49.80
28767;DHT22;15921;52.034;20.650;2023-05-10T08:36:30;16.20;49.30
28767;DHT22;15921;52.034;20.650;2023-05-10T08:38:57;16.30;48.60
28767;DHT22;15921;52.034;20.650;2023-05-10T08:41:24;16.30;48.40
28767;DHT22;15921;52.034;20.650;2023-05-10T08:43:52;16.30;48.00
28767;DHT22;15921;52.034;20.650;2023-05-10T08:46:20;16.40;47.10
28767;DHT22;15921;52.034;20.650;2023-05-10T08:48:47;16.40;47.60
28767;DHT22;15921;52.034;20.650;2023-05-10T08:51:24;16.40;47.20
28767;DHT22;15921;52.034;20.650;2023-05-10T08:53:53;16.40;47.80
28767;DHT22;15921;52.034;20.650;2023-05-10T08:56:19;16.50;47.00
28767;DHT22;15921;52.034;20.650;2023-05-10T08:58:45;16.60;47.20
28767;DHT22;15921;52.034;20.650;2023-05-10T09:01:12;16.60;46.50
28767;DHT22;15921;52.034;20.650;2023-05-10T09:03:39;16.70;46.50
28767;DHT22;15921;52.034;20.650;2023-05-10T09:06:05;16.70;46.60
28767;DHT22;15921;52.034;20.650;2023-05-10T09:08:32;16.70;45.90
28767;DHT22;15921;52.034;20.650;2023-05-10T09:11:00;16.70;45.50
28767;DHT22;15921;52.034;20.650;2023-05-10T09:13:27;16.70;45.90
28767;DHT22;15921;52.034;20.650;2023-05-10T09:15:53;16.70;46.30
28767;DHT22;15921;52.034;20.650;2023-05-10T09:18:19;16.80;46.00
28767;DHT22;15921;52.034;20.650;2023-05-10T09:20:45;16.90;46.00
28767;DHT22;15921;52.034;20.650;2023-05-10T09:23:11;16.90;45.50
28767;DHT22;15921;52.034;20.650;2023-05-10T09:25:36;16.90;45.20
28767;DHT22;15921;52.034;20.650;2023-05-10T09:28:07;16.90;45.70
28767;DHT22;15921;52.034;20.650;2023-05-10T09:30:34;17.00;46.00
28767;DHT22;15921;52.034;20.650;2023-05-10T09:33:00;17.10;45.40
28767;DHT22;15921;52.034;20.650;2023-05-10T09:35:31;17.10;44.50
28767;DHT22;15921;52.034;20.650;2023-05-10T09:38:02;17.00;43.90
28767;DHT22;15921;52.034;20.650;2023-05-10T09:40:29;17.00;45.10
28767;DHT22;15921;52.034;20.650;2023-05-10T09:43:08;17.10;44.90
28767;DHT22;15921;52.034;20.650;2023-05-10T09:45:35;17.10;44.90
28767;DHT22;15921;52.034;20.650;2023-05-10T09:48:02;17.20;46.30
28767;DHT22;15921;52.034;20.650;2023-05-10T09:50:31;17.30;46.00
28767;DHT22;15921;52.034;20.650;2023-05-10T09:53:02;17.40;46.20
28767;DHT22;15921;52.034;20.650;2023-05-10T09:55:41;17.50;46.10
28767;DHT22;15921;52.034;20.650;2023-05-10T09:58:10;17.50;46.00
28767;DHT22;15921;52.034;20.650;2023-05-10T10:00:37;17.50;46.50
28767;DHT22;15921;52.034;20.650;2023-05-10T10:03:04;17.70;45.60
28767;DHT22;15921;52.034;20.650;2023-05-10T10:07:58;17.70;45.10
28767;DHT22;15921;52.034;20.650;2023-05-10T10:10:25;17.70;45.30
28767;DHT22;15921;52.034;20.650;2023-05-10T10:12:51;17.70;45.70
28767;DHT22;15921;52.034;20.650;2023-05-10T10:15:17;17.80;45.10
28767;DHT22;15921;52.034;20.650;2023-05-10T10:17:44;17.90;45.20
28767;DHT22;15921;52.034;20.650;2023-05-10T10:20:11;17.90;45.70
28767;DHT22;15921;52.034;20.650;2023-05-10T10:22:37;18.00;44.80
28767;DHT22;15921;52.034;20.650;2023-05-10T10:25:04;18.00;45.00
28767;DHT22;15921;52.034;20.650;2023-05-10T10:33:36;18.10;44.30
28767;DHT22;15921;52.034;20.650;2023-05-10T10:36:04;18.30;45.10
28767;DHT22;15921;52.034;20.650;2023-05-10T10:49:27;18.60;43.40
28767;DHT22;15921;52.034;20.650;2023-05-10T10:57:43;18.50;42.70
28767;DHT22;15921;52.034;20.650;2023-05-10T11:00:33;18.50;44.20
28767;DHT22;15921;52.034;20.650;2023-05-10T11:03:05;18.60;43.60
28767;DHT22;15921;52.034;20.650;2023-05-10T11:05:47;18.70;43.90
28767;DHT22;15921;52.034;20.650;2023-05-10T11:11:10;18.80;43.60
28767;DHT22;15921;52.034;20.650;2023-05-10T11:13:41;19.00;42.60
28767;DHT22;15921;52.034;20.650;2023-05-10T11:16:21;19.00;43.10
28767;DHT22;15921;52.034;20.650;2023-05-10T11:21:19;19.10;42.50
28767;DHT22;15921;52.034;20.650;2023-05-10T11:23:49;19.00;42.40
28767;DHT22;15921;52.034;20.650;2023-05-10T11:26:15;19.10;42.30
28767;DHT22;15921;52.034;20.650;2023-05-10T11:28:45;19.20;42.20
28767;DHT22;15921;52.034;20.650;2023-05-10T11:31:14;19.30;42.20
28767;DHT22;15921;52.034;20.650;2023-05-10T11:36:39;19.40;41.70
28767;DHT22;15921;52.034;20.650;2023-05-10T11:39:05;19.50;41.40
28767;DHT22;15921;52.034;20.650;2023-05-10T11:41:31;19.60;41.90
28767;DHT22;15921;52.034;20.650;2023-05-10T11:43:58;19.80;41.20
28767;DHT22;15921;52.034;20.650;2023-05-10T11:46:25;19.90;41.00
28767;DHT22;15921;52.034;20.650;2023-05-10T11:48:54;20.10;40.90
28767;DHT22;15921;52.034;20.650;2023-05-10T11:51:24;20.30;40.30
28767;DHT22;15921;52.034;20.650;2023-05-10T11:53:52;20.50;40.00
28767;DHT22;15921;52.034;20.650;2023-05-10T11:56:18;20.60;39.20
28767;DHT22;15921;52.034;20.650;2023-05-10T11:58:44;20.80;39.30
28767;DHT22;15921;52.034;20.650;2023-05-10T12:01:10;21.00;39.30
28767;DHT22;15921;52.034;20.650;2023-05-10T12:03:36;21.40;39.30
28767;DHT22;15921;52.034;20.650;2023-05-10T12:06:03;21.70;38.60
28767;DHT22;15921;52.034;20.650;2023-05-10T12:08:30;22.20;37.90
28767;DHT22;15921;52.034;20.650;2023-05-10T12:11:07;23.80;36.60
28767;DHT22;15921;52.034;20.650;2023-05-10T12:13:37;26.00;33.50
28767;DHT22;15921;52.034;20.650;2023-05-10T12:16:18;28.00;32.10
28767;DHT22;15921;52.034;20.650;2023-05-10T12:18:45;30.20;30.30
28767;DHT22;15921;52.034;20.650;2023-05-10T12:21:14;32.00;29.20
28767;DHT22;15921;52.034;20.650;2023-05-10T12:23:40;33.30;28.10
28767;DHT22;15921;52.034;20.650;2023-05-10T12:26:08;33.90;26.50
28767;DHT22;15921;52.034;20.650;2023-05-10T12:28:34;34.00;26.40
28767;DHT22;15921;52.034;20.650;2023-05-10T12:31:01;34.60;26.30
28767;DHT22;15921;52.034;20.650;2023-05-10T12:33:27;35.30;25.60
28767;DHT22;15921;52.034;20.650;2023-05-10T12:36:00;35.20;25.10
28767;DHT22;15921;52.034;20.650;2023-05-10T12:38:38;35.30;25.00
28767;DHT22;15921;52.034;20.650;2023-05-10T12:41:06;35.70;25.10
28767;DHT22;15921;52.034;20.650;2023-05-10T12:43:33;36.40;25.30
28767;DHT22;15921;52.034;20.650;2023-05-10T12:46:07;37.30;25.00
28767;DHT22;15921;52.034;20.650;2023-05-10T12:48:34;38.00;24.00
28767;DHT22;15921;52.034;20.650;2023-05-10T12:51:01;37.60;24.00
28767;DHT22;15921;52.034;20.650;2023-05-10T12:53:27;38.10;23.80
28767;DHT22;15921;52.034;20.650;2023-05-10T12:55:52;38.80;23.80
28767;DHT22;15921;52.034;20.650;2023-05-10T12:58:18;38.60;23.20
28767;DHT22;15921;52.034;20.650;2023-05-10T13:00:44;38.40;23.40
28767;DHT22;15921;52.034;20.650;2023-05-10T13:03:10;38.70;23.50
28767;DHT22;15921;52.034;20.650;2023-05-10T13:05:36;39.50;23.40
28767;DHT22;15921;52.034;20.650;2023-05-10T13:08:02;39.70;23.10
28767;DHT22;15921;52.034;20.650;2023-05-10T13:10:31;39.90;23.10
28767;DHT22;15921;52.034;20.650;2023-05-10T13:12:58;40.00;22.80
28767;DHT22;15921;52.034;20.650;2023-05-10T13:15:24;40.10;22.70
28767;DHT22;15921;52.034;20.650;2023-05-10T13:17:50;40.30;22.90
28767;DHT22;15921;52.034;20.650;2023-05-10T13:20:16;41.10;22.80
28767;DHT22;15921;52.034;20.650;2023-05-10T13:22:45;41.90;22.30
28767;DHT22;15921;52.034;20.650;2023-05-10T13:25:11;41.40;21.70
28767;DHT22;15921;52.034;20.650;2023-05-10T13:27:40;41.00;22.10
28767;DHT22;15921;52.034;20.650;2023-05-10T13:30:09;41.50;22.30
28767;DHT22;15921;52.034;20.650;2023-05-10T13:32:36;41.80;21.80
28767;DHT22;15921;52.034;20.650;2023-05-10T13:35:02;41.80;21.60
28767;DHT22;15921;52.034;20.650;2023-05-10T13:37:29;41.50;21.50
28767;DHT22;15921;52.034;20.650;2023-05-10T13:39:55;41.00;21.60
28767;DHT22;15921;52.034;20.650;2023-05-10T13:42:22;41.40;21.80
28767;DHT22;15921;52.034;20.650;2023-05-10T13:44:52;42.30;21.80
28767;DHT22;15921;52.034;20.650;2023-05-10T13:47:18;42.60;21.60
28767;DHT22;15921;52.034;20.650;2023-05-10T13:49:44;43.10;21.50
28767;DHT22;15921;52.034;20.650;2023-05-10T13:52:09;43.10;21.00
28767;DHT22;15921;52.034;20.650;2023-05-10T13:54:36;42.40;21.00
28767;DHT22;15921;52.034;20.650;2023-05-10T13:57:03;42.50;21.20
28767;DHT22;15921;52.034;20.650;2023-05-10T13:59:30;42.50;21.10
28767;DHT22;15921;52.034;20.650;2023-05-10T14:01:59;42.70;20.90
28767;DHT22;15921;52.034;20.650;2023-05-10T14:04:26;42.50;21.10
28767;DHT22;15921;52.034;20.650;2023-05-10T14:06:51;42.20;21.20
28767;DHT22;15921;52.034;20.650;2023-05-10T14:09:18;41.40;21.20
28767;DHT22;15921;52.034;20.650;2023-05-10T14:11:44;40.00;21.50
28767;DHT22;15921;52.034;20.650;2023-05-10T14:14:11;38.80;22.20
28767;DHT22;15921;52.034;20.650;2023-05-10T14:16:37;38.10;22.40
28767;DHT22;15921;52.034;20.650;2023-05-10T14:19:02;37.80;22.30
28767;DHT22;15921;52.034;20.650;2023-05-10T14:21:28;38.20;22.50
28767;DHT22;15921;52.034;20.650;2023-05-10T14:23:57;38.70;22.30
28767;DHT22;15921;52.034;20.650;2023-05-10T14:26:22;39.00;22.20
28767;DHT22;15921;52.034;20.650;2023-05-10T14:28:49;39.40;22.30
28767;DHT22;15921;52.034;20.650;2023-05-10T14:31:14;39.70;22.30
28767;DHT22;15921;52.034;20.650;2023-05-10T14:33:42;39.40;22.20
28767;DHT22;15921;52.034;20.650;2023-05-10T14:36:08;38.80;22.40
28767;DHT22;15921;52.034;20.650;2023-05-10T14:38:34;38.60;22.50
28767;DHT22;15921;52.034;20.650;2023-05-10T14:40:59;38.60;22.50
28767;DHT22;15921;52.034;20.650;2023-05-10T14:43:25;39.20;22.40
28767;DHT22;15921;52.034;20.650;2023-05-10T14:45:52;39.70;22.30
28767;DHT22;15921;52.034;20.650;2023-05-10T14:48:18;40.40;22.00
28767;DHT22;15921;52.034;20.650;2023-05-10T14:50:45;40.20;21.90
28767;DHT22;15921;52.034;20.650;2023-05-10T14:53:11;40.30;22.00
28767;DHT22;15921;52.034;20.650;2023-05-10T14:55:37;40.30;21.70
28767;DHT22;15921;52.034;20.650;2023-05-10T14:58:03;40.20;21.70
28767;DHT22;15921;52.034;20.650;2023-05-10T15:00:29;39.70;21.80
28767;DHT22;15921;52.034;20.650;2023-05-10T15:02:55;38.90;21.90
28767;DHT22;15921;52.034;20.650;2023-05-10T15:05:21;38.90;22.00
28767;DHT22;15921;52.034;20.650;2023-05-10T15:07:47;39.80;22.10
28767;DHT22;15921;52.034;20.650;2023-05-10T15:10:14;40.80;21.60
28767;DHT22;15921;52.034;20.650;2023-05-10T15:12:40;41.20;21.70
28767;DHT22;15921;52.034;20.650;2023-05-10T15:15:06;41.50;21.60
28767;DHT22;15921;52.034;20.650;2023-05-10T15:17:32;42.10;21.40
28767;DHT22;15921;52.034;20.650;2023-05-10T15:19:58;42.60;21.20
28767;DHT22;15921;52.034;20.650;2023-05-10T15:22:23;42.60;20.80
28767;DHT22;15921;52.034;20.650;2023-05-10T15:24:49;42.30;21.20
28767;DHT22;15921;52.034;20.650;2023-05-10T15:27:15;42.30;21.00
28767;DHT22;15921;52.034;20.650;2023-05-10T15:29:41;41.90;21.10
28767;DHT22;15921;52.034;20.650;2023-05-10T15:32:07;41.00;21.10
28767;DHT22;15921;52.034;20.650;2023-05-10T15:34:32;39.90;21.20
28767;DHT22;15921;52.034;20.650;2023-05-10T15:36:58;39.20;21.50
28767;DHT22;15921;52.034;20.650;2023-05-10T15:39:24;39.80;21.50
28767;DHT22;15921;52.034;20.650;2023-05-10T15:41:50;40.70;21.30
28767;DHT22;15921;52.034;20.650;2023-05-10T15:44:16;41.20;21.00
28767;DHT22;15921;52.034;20.650;2023-05-10T15:46:42;41.40;21.10
28767;DHT22;15921;52.034;20.650;2023-05-10T15:49:08;41.20;21.00
28767;DHT22;15921;52.034;20.650;2023-05-10T15:51:33;41.00;20.90
28767;DHT22;15921;52.034;20.650;2023-05-10T15:53:59;40.90;20.90
28767;DHT22;15921;52.034;20.650;2023-05-10T15:56:27;41.00;20.90
28767;DHT22;15921;52.034;20.650;2023-05-10T15:58:53;41.10;21.10
28767;DHT22;15921;52.034;20.650;2023-05-10T16:01:18;41.30;21.00